Terminal Aerodrome Forecast
Issued by NWS Omaha/Valley, NE

Home | Current Version | Previous Version | Text Only | Print | Product List | Glossary On
Versions: 1 2 3 4 5 6 7 8 9 10 11 12 13
000
FTUS43 KOAX 232320
TAFLNK
TAF
KLNK 232320Z 2400/2424 18013G20KT P6SM BKN250
     FM240500 18014KT P6SM BKN200 WS020/19040KT
     FM241400 18018G26KT P6SM BKN200
     FM242300 19013KT P6SM SCT150=

USA.gov is the U.S. government's official web portal to all federal, state and local government web resources and services.